Time;durP1;ratioP1;P1;durP2;ratioP2;P2;SDS_P1;SDS_P2;PMS_P1;PMS_P2;Temp;Humidity;BMP_temperature;BMP_pressure;BME280_temperature;BME280_humidity;BME280_pressure;Samples;Min_cycle;Max_cycle;Signal;HPM_P1;HPM_P2
2023/04/17 00:01:50;;;;;;;6.77;6.07;;;;;;;11.65;59.05;102224.88;4935451;28;97378;-51
2023/04/17 00:04:15;;;;;;;6.23;5.67;;;;;;;11.65;58.92;102222.09;4936017;28;97479;-51
2023/04/17 00:06:44;;;;;;;6.97;5.40;;;;;;;11.64;59.10;102230.84;4937263;28;96987;-51
2023/04/17 00:09:10;;;;;;;6.90;6.10;;;;;;;11.58;59.05;102221.66;4934321;28;96961;-51
2023/04/17 00:11:35;;;;;;;8.47;5.90;;;;;;;11.56;59.09;102232.38;4932462;28;97066;-51
2023/04/17 00:14:01;;;;;;;7.00;6.20;;;;;;;11.53;59.13;102214.75;4936865;28;97278;-53
2023/04/17 00:16:26;;;;;;;10.13;6.30;;;;;;;11.51;59.11;102238.50;4936024;28;97089;-53
2023/04/17 00:18:52;;;;;;;9.50;5.40;;;;;;;11.48;59.05;102229.16;4938076;28;97520;-51
2023/04/17 00:21:18;;;;;;;8.20;5.70;;;;;;;11.49;59.06;102227.94;4935684;28;96915;-51
2023/04/17 00:23:44;;;;;;;7.60;5.90;;;;;;;11.48;58.98;102236.66;4935523;28;97162;-51
2023/04/17 00:26:10;;;;;;;8.00;6.70;;;;;;;11.46;59.11;102228.88;4935930;28;97502;-51
2023/04/17 00:28:35;;;;;;;7.23;6.00;;;;;;;11.44;58.90;102228.56;4937085;28;97128;-52
2023/04/17 00:31:01;;;;;;;15.93;6.13;;;;;;;11.45;59.00;102224.56;4934127;28;97373;-52
2023/04/17 00:33:26;;;;;;;6.13;5.50;;;;;;;11.43;59.11;102226.25;4933483;28;97530;-51
2023/04/17 00:35:52;;;;;;;6.40;5.57;;;;;;;11.40;59.11;102227.19;4936831;28;96907;-51
2023/04/17 00:38:17;;;;;;;8.20;5.90;;;;;;;11.38;59.08;102221.38;4936211;28;97202;-51
2023/04/17 00:40:44;;;;;;;19.33;5.97;;;;;;;11.36;59.16;102219.06;4934112;28;96787;-52
2023/04/17 00:43:10;;;;;;;11.70;5.87;;;;;;;11.36;58.95;102221.06;4936011;28;97106;-51
2023/04/17 00:45:35;;;;;;;8.17;5.63;;;;;;;11.36;59.08;102221.06;4935014;28;96895;-51
2023/04/17 00:48:03;;;;;;;9.20;6.87;;;;;;;11.33;59.08;102222.75;4935258;28;97723;-53
2023/04/17 00:50:29;;;;;;;7.23;5.87;;;;;;;11.29;59.03;102222.13;4933437;28;96790;-51
2023/04/17 00:52:55;;;;;;;7.57;5.63;;;;;;;11.26;59.16;102229.31;4936033;28;97122;-52
2023/04/17 00:55:20;;;;;;;7.87;6.00;;;;;;;11.24;59.13;102228.25;4937040;28;96949;-51
2023/04/17 00:57:49;;;;;;;5.57;5.07;;;;;;;11.23;59.36;102215.69;4935780;28;97410;-51
2023/04/17 01:00:16;;;;;;;6.03;5.37;;;;;;;11.24;59.22;102219.97;4932686;28;97421;-51
2023/04/17 01:02:43;;;;;;;6.90;6.00;;;;;;;11.26;59.17;102215.53;4934686;28;97174;-54
2023/04/17 01:05:08;;;;;;;6.73;5.93;;;;;;;11.24;59.01;102217.22;4933256;28;96697;-50
2023/04/17 01:07:35;;;;;;;6.80;5.37;;;;;;;11.22;59.21;102216.91;4934766;28;96736;-51
2023/04/17 01:10:00;;;;;;;8.17;4.87;;;;;;;11.20;59.15;102219.38;4936668;28;97455;-51
2023/04/17 01:12:25;;;;;;;7.77;6.07;;;;;;;11.16;59.32;102216.00;4936604;28;96914;-51
2023/04/17 01:14:53;;;;;;;10.10;5.57;;;;;;;11.14;59.28;102218.41;4936837;28;97233;-51
2023/04/17 01:17:20;;;;;;;9.30;5.77;;;;;;;11.10;59.19;102218.59;4935338;28;96959;-50
2023/04/17 01:19:46;;;;;;;9.67;5.33;;;;;;;11.07;59.27;102224.25;4935225;28;96791;-51
2023/04/17 01:22:11;;;;;;;5.73;5.13;;;;;;;11.02;59.46;102224.84;4935429;28;97091;-50
2023/04/17 01:24:37;;;;;;;6.63;6.00;;;;;;;10.97;59.65;102234.47;4936644;28;98075;-52
2023/04/17 01:27:03;;;;;;;7.90;5.50;;;;;;;10.93;59.43;102222.06;4933458;28;96709;-53
2023/04/17 01:29:29;;;;;;;8.13;5.63;;;;;;;10.88;59.57;102226.19;4937791;28;97170;-51
2023/04/17 01:31:54;;;;;;;7.00;5.67;;;;;;;10.88;59.69;102223.44;4933224;28;97033;-52
2023/04/17 01:34:20;;;;;;;6.97;4.93;;;;;;;10.82;59.84;102228.03;4932690;28;97394;-51
2023/04/17 01:36:45;;;;;;;10.50;5.37;;;;;;;10.83;59.83;102223.28;4937346;28;97839;-50
2023/04/17 01:39:11;;;;;;;10.23;6.30;;;;;;;10.80;59.78;102229.69;4935407;28;97555;-55
2023/04/17 01:41:36;;;;;;;6.63;5.23;;;;;;;10.80;59.73;102232.44;4936939;28;97230;-51
2023/04/17 01:44:01;;;;;;;7.13;5.67;;;;;;;10.78;60.01;102232.91;4932098;28;97041;-51
2023/04/17 01:46:27;;;;;;;8.50;5.70;;;;;;;10.79;59.90;102223.41;4934050;28;97086;-51
2023/04/17 01:48:53;;;;;;;15.20;6.50;;;;;;;10.79;59.74;102228.19;4934471;28;97443;-51
2023/04/17 01:51:18;;;;;;;10.73;6.00;;;;;;;10.80;59.74;102233.22;4931941;28;96798;-51
2023/04/17 01:53:44;;;;;;;8.93;5.60;;;;;;;10.83;59.67;102231.56;4934136;28;96938;-52
2023/04/17 01:56:10;;;;;;;8.00;6.27;;;;;;;10.82;59.78;102232.75;4934636;28;97166;-51
2023/04/17 01:58:35;;;;;;;7.70;5.63;;;;;;;10.81;59.75;102236.75;4934422;28;97037;-51
2023/04/17 02:01:01;;;;;;;5.93;5.33;;;;;;;10.78;59.76;102234.91;4936262;28;96654;-51
2023/04/17 02:03:26;;;;;;;10.90;6.30;;;;;;;10.76;59.84;102242.84;4932456;28;97112;-51
2023/04/17 02:05:52;;;;;;;7.10;5.80;;;;;;;10.76;59.83;102237.34;4933128;28;97150;-53
2023/04/17 02:08:19;;;;;;;8.03;5.47;;;;;;;10.74;59.74;102243.31;4932394;28;97277;-51
2023/04/17 02:10:45;;;;;;;6.43;5.40;;;;;;;10.72;59.95;102244.97;4934432;28;97160;-51
2023/04/17 02:13:10;;;;;;;8.43;5.37;;;;;;;10.70;59.78;102258.44;4935196;28;97489;-51
2023/04/17 02:15:36;;;;;;;6.57;5.50;;;;;;;10.68;59.91;102253.34;4933074;28;96839;-53
2023/04/17 02:18:04;;;;;;;8.73;5.97;;;;;;;10.64;59.98;102254.75;4932364;28;98090;-51
2023/04/17 02:20:30;;;;;;;6.87;5.27;;;;;;;10.62;60.09;102246.91;4933190;28;97799;-51
2023/04/17 02:22:55;;;;;;;7.73;6.13;;;;;;;10.59;60.08;102250.59;4934069;28;96880;-51
2023/04/17 02:25:21;;;;;;;6.57;5.87;;;;;;;10.61;60.25;102244.63;4938014;28;97157;-52
2023/04/17 02:27:46;;;;;;;7.20;5.67;;;;;;;10.59;60.23;102250.59;4935646;28;97338;-51
2023/04/17 02:30:11;;;;;;;7.00;6.23;;;;;;;10.57;60.10;102240.03;4931499;28;96664;-51
2023/04/17 02:32:37;;;;;;;8.73;5.80;;;;;;;10.57;59.94;102249.50;4934354;28;97473;-52
2023/04/17 02:35:02;;;;;;;8.00;5.80;;;;;;;10.55;60.26;102249.94;4933250;28;96989;-52
2023/04/17 02:37:28;;;;;;;7.97;5.80;;;;;;;10.54;60.18;102243.69;4934842;28;96761;-51
2023/04/17 02:39:54;;;;;;;7.00;6.23;;;;;;;10.51;60.17;102249.31;4933224;28;97077;-50
2023/04/17 02:42:19;;;;;;;7.13;6.37;;;;;;;10.48;60.37;102255.75;4931235;28;97270;-51
2023/04/17 02:44:45;;;;;;;8.33;6.07;;;;;;;10.48;60.34;102242.72;4934406;28;97069;-50
2023/04/17 02:47:11;;;;;;;7.40;6.10;;;;;;;10.45;60.59;102243.66;4933004;28;97300;-51
2023/04/17 02:49:36;;;;;;;8.80;5.60;;;;;;;10.43;60.46;102246.09;4936160;28;96767;-51
2023/04/17 02:52:02;;;;;;;6.83;5.27;;;;;;;10.41;60.39;102245.00;4933196;28;97149;-51
2023/04/17 02:54:27;;;;;;;8.03;5.63;;;;;;;10.39;60.58;102239.97;4933263;28;97367;-51
2023/04/17 02:56:52;;;;;;;9.53;6.40;;;;;;;10.40;60.77;102244.25;4930738;28;97449;-52
2023/04/17 02:59:18;;;;;;;10.10;6.57;;;;;;;10.41;60.68;102245.00;4932826;28;97237;-51
2023/04/17 03:01:44;;;;;;;7.60;5.80;;;;;;;10.41;60.43;102242.25;4934279;28;97242;-51
2023/04/17 03:04:10;;;;;;;9.60;5.70;;;;;;;10.41;60.69;102243.03;4933671;28;96797;-51
2023/04/17 03:06:35;;;;;;;11.67;6.23;;;;;;;10.41;60.79;102245.78;4930999;28;97164;-51
2023/04/17 03:09:02;;;;;;;11.13;6.43;;;;;;;10.42;60.63;102243.78;4934694;28;96982;-53
2023/04/17 03:11:27;;;;;;;12.20;6.00;;;;;;;10.44;60.64;102246.88;4934829;28;96976;-50
2023/04/17 03:13:52;;;;;;;6.70;5.87;;;;;;;10.44;60.74;102247.63;4941132;28;97109;-51
2023/04/17 03:16:18;;;;;;;7.70;6.10;;;;;;;10.45;60.63;102248.38;4934113;28;97385;-53
2023/04/17 03:18:43;;;;;;;9.13;6.23;;;;;;;10.42;60.66;102247.31;4935130;28;101097;-53
2023/04/17 03:21:08;;;;;;;8.43;5.80;;;;;;;10.39;60.60;102244.69;4934186;28;96962;-51
2023/04/17 03:23:34;;;;;;;12.70;5.90;;;;;;;10.40;60.53;102255.25;4933206;28;96872;-51
2023/04/17 03:25:59;;;;;;;7.80;5.80;;;;;;;10.38;60.70;102254.94;4935965;28;99151;-51
2023/04/17 03:28:25;;;;;;;8.00;6.80;;;;;;;10.39;60.83;102252.97;4935392;28;98199;-51
2023/04/17 03:30:50;;;;;;;12.03;6.80;;;;;;;10.40;60.78;102263.50;4933612;28;104834;-51
2023/04/17 03:33:17;;;;;;;7.53;6.30;;;;;;;10.37;60.62;102264.41;4933881;28;96794;-53
2023/04/17 03:35:43;;;;;;;6.63;5.73;;;;;;;10.35;60.69;102261.31;4936411;28;97394;-53
2023/04/17 03:38:09;;;;;;;8.93;6.37;;;;;;;10.33;60.86;102268.53;4935854;28;96867;-51
2023/04/17 03:40:35;;;;;;;9.13;6.67;;;;;;;10.31;60.89;102260.69;4933877;28;96902;-51
2023/04/17 03:43:00;;;;;;;6.97;5.73;;;;;;;10.31;60.98;102266.19;4934604;28;96829;-52
2023/04/17 03:45:26;;;;;;;9.73;6.97;;;;;;;10.28;60.92;102261.63;4936462;28;97640;-50
2023/04/17 03:47:51;;;;;;;9.77;7.23;;;;;;;10.29;60.87;102268.63;4930382;28;97557;-53
2023/04/17 03:50:17;;;;;;;6.63;5.93;;;;;;;10.30;60.93;102267.44;4934337;28;97431;-53
2023/04/17 03:52:42;;;;;;;12.47;7.10;;;;;;;10.30;60.90;102270.19;4936513;28;98127;-51
2023/04/17 03:55:08;;;;;;;8.00;5.90;;;;;;;10.33;60.87;102272.00;4933842;28;96717;-51
2023/04/17 03:57:34;;;;;;;7.53;6.80;;;;;;;10.33;60.80;102280.28;4934610;28;97078;-51
2023/04/17 04:00:00;;;;;;;9.97;6.60;;;;;;;10.35;60.77;102274.34;4935259;28;96761;-51
2023/04/17 04:02:25;;;;;;;8.00;6.20;;;;;;;10.32;60.78;102273.25;4936510;28;97193;-53
2023/04/17 04:04:51;;;;;;;6.87;5.80;;;;;;;10.31;60.93;102268.22;4935515;28;96911;-51
2023/04/17 04:07:16;;;;;;;8.60;6.33;;;;;;;10.28;60.86;102275.38;4934524;28;97266;-51
2023/04/17 04:09:42;;;;;;;9.40;6.50;;;;;;;10.29;60.96;102278.88;4935239;28;96916;-51
2023/04/17 04:12:07;;;;;;;7.27;6.10;;;;;;;10.27;60.88;102281.31;4940272;28;97211;-51
2023/04/17 04:14:33;;;;;;;8.37;5.90;;;;;;;10.26;60.99;102279.78;4937675;28;97444;-52
2023/04/17 04:16:59;;;;;;;9.30;6.33;;;;;;;10.26;60.82;102277.81;4937658;28;97070;-51
2023/04/17 04:19:24;;;;;;;9.10;6.27;;;;;;;10.24;60.87;102279.47;4939557;28;97311;-52
2023/04/17 04:21:52;;;;;;;7.23;5.70;;;;;;;10.22;60.82;102285.41;4934295;28;97746;-52
2023/04/17 04:24:19;;;;;;;9.03;6.03;;;;;;;10.20;61.01;102287.09;4934920;28;97275;-51
2023/04/17 04:26:48;;;;;;;9.53;6.20;;;;;;;10.18;60.99;102293.03;4933687;28;97261;-53
2023/04/17 04:29:14;;;;;;;6.63;5.07;;;;;;;10.18;60.90;102295.78;4932516;28;97090;-51
2023/04/17 04:31:40;;;;;;;8.07;5.47;;;;;;;10.19;60.92;102294.56;4932105;28;97372;-51
2023/04/17 04:34:06;;;;;;;10.43;5.50;;;;;;;10.19;60.98;102302.06;4929674;28;96951;-51
2023/04/17 04:36:35;;;;;;;9.07;6.27;;;;;;;10.17;60.91;102291.50;4934767;28;97275;-52
2023/04/17 04:39:04;;;;;;;7.03;6.00;;;;;;;10.13;61.01;102304.63;4935591;28;97029;-51
2023/04/17 04:41:32;;;;;;;8.63;6.20;;;;;;;10.08;61.04;102294.16;4935513;28;96933;-53
2023/04/17 04:43:59;;;;;;;7.57;5.80;;;;;;;10.06;61.12;102293.84;4934245;28;97416;-51
2023/04/17 04:46:24;;;;;;;9.77;5.90;;;;;;;10.04;61.26;102301.78;4934860;28;97148;-51
2023/04/17 04:48:49;;;;;;;7.23;6.20;;;;;;;10.01;61.30;102299.91;4934962;28;96965;-52
2023/04/17 04:51:17;;;;;;;6.40;5.70;;;;;;;10.01;61.44;102310.13;4931183;28;96994;-51
2023/04/17 04:53:43;;;;;;;7.93;5.50;;;;;;;10.00;61.53;102303.91;4935971;28;97417;-52
2023/04/17 04:56:08;;;;;;;5.87;5.20;;;;;;;10.01;61.38;102307.38;4933008;28;97114;-51
2023/04/17 04:58:33;;;;;;;9.93;6.37;;;;;;;10.05;61.38;102314.31;4934538;28;97306;-53
2023/04/17 05:00:59;;;;;;;7.57;6.47;;;;;;;10.06;61.42;102306.81;4936581;28;96918;-51
2023/04/17 05:03:25;;;;;;;7.73;5.67;;;;;;;10.09;61.26;102320.44;4939234;28;97370;-51
2023/04/17 05:05:50;;;;;;;8.30;5.37;;;;;;;10.11;61.43;102328.28;4935646;28;98303;-53
2023/04/17 05:08:15;;;;;;;6.50;5.63;;;;;;;10.13;61.44;102321.13;4938775;28;97038;-51
2023/04/17 05:10:41;;;;;;;8.50;5.57;;;;;;;10.16;61.38;102320.22;4935405;28;97409;-51
2023/04/17 05:13:06;;;;;;;7.10;6.40;;;;;;;10.21;61.30;102327.13;4933752;28;96983;-51
2023/04/17 05:15:32;;;;;;;9.00;5.63;;;;;;;10.28;61.28;102332.38;4934130;28;97048;-51
2023/04/17 05:17:57;;;;;;;6.73;6.03;;;;;;;10.26;61.22;102332.81;4936669;28;97042;-51
2023/04/17 05:20:24;;;;;;;9.20;6.13;;;;;;;10.28;61.36;102335.91;4936638;28;96732;-52
2023/04/17 05:22:50;;;;;;;10.17;5.90;;;;;;;10.33;61.38;102338.03;4934488;28;96756;-51
2023/04/17 05:25:15;;;;;;;9.00;6.77;;;;;;;10.40;61.17;102342.50;4936703;28;97575;-51
2023/04/17 05:27:41;;;;;;;7.50;6.10;;;;;;;10.43;61.24;102347.13;4936361;28;97177;-53
2023/04/17 05:30:07;;;;;;;7.57;5.50;;;;;;;10.47;61.19;102343.03;4934517;28;98502;-51
2023/04/17 05:32:33;;;;;;;7.30;5.37;;;;;;;10.51;61.27;102338.16;4936606;28;99426;-51
2023/04/17 05:34:59;;;;;;;9.70;6.33;;;;;;;10.55;61.16;102344.28;4935550;28;97280;-50
2023/04/17 05:37:24;;;;;;;6.00;5.43;;;;;;;10.60;61.19;102350.41;4936409;28;96916;-52
2023/04/17 05:39:50;;;;;;;10.40;6.53;;;;;;;10.64;61.21;102346.31;4935412;28;97277;-51
2023/04/17 05:42:15;;;;;;;9.10;6.80;;;;;;;10.71;61.16;102356.28;4930930;28;97486;-51
2023/04/17 05:44:40;;;;;;;7.63;5.87;;;;;;;10.77;61.06;102351.75;4934018;28;97514;-51
2023/04/17 05:47:06;;;;;;;9.50;6.67;;;;;;;10.81;61.02;102344.88;4932187;28;97025;-51
2023/04/17 05:49:32;;;;;;;8.70;7.00;;;;;;;10.85;60.94;102356.53;4934088;28;97316;-51
2023/04/17 05:51:57;;;;;;;9.40;7.17;;;;;;;10.90;60.71;102355.94;4933084;28;96907;-52
2023/04/17 05:54:22;;;;;;;9.93;7.07;;;;;;;10.93;60.86;102365.28;4933931;28;97251;-51
2023/04/17 05:56:48;;;;;;;10.40;8.03;;;;;;;10.97;60.91;102363.13;4932004;28;97012;-51
2023/04/17 05:59:14;;;;;;;10.43;7.30;;;;;;;11.00;60.84;102360.25;4933666;28;97190;-51
2023/04/17 06:01:39;;;;;;;9.20;6.30;;;;;;;11.07;60.88;102356.47;4931693;28;96707;-51
2023/04/17 06:04:05;;;;;;;10.63;7.27;;;;;;;11.17;60.75;102358.78;4934169;28;96969;-51
2023/04/17 06:06:30;;;;;;;11.23;6.70;;;;;;;11.20;60.62;102357.13;4933440;28;96744;-52
2023/04/17 06:08:56;;;;;;;7.40;6.23;;;;;;;11.25;60.66;102359.25;4933832;28;97088;-51
2023/04/17 06:11:22;;;;;;;10.30;7.80;;;;;;;11.32;60.70;102361.72;4931707;28;97109;-51
2023/04/17 06:13:47;;;;;;;9.87;7.50;;;;;;;11.37;60.59;102360.38;4935468;28;97459;-51
2023/04/17 06:16:12;;;;;;;10.77;7.70;;;;;;;11.35;60.31;102366.34;4933016;28;97119;-51
2023/04/17 06:18:39;;;;;;;11.40;7.30;;;;;;;11.33;60.48;102371.53;4934101;28;97116;-51
2023/04/17 06:21:06;;;;;;;12.73;7.70;;;;;;;11.43;60.69;102367.56;4930939;28;97370;-51
2023/04/17 06:23:32;;;;;;;9.50;6.90;;;;;;;11.52;60.49;102362.09;4932821;28;96985;-51
2023/04/17 06:25:57;;;;;;;9.10;7.10;;;;;;;11.67;60.50;102363.03;4936218;28;97283;-50
2023/04/17 06:28:23;;;;;;;9.23;6.70;;;;;;;11.78;60.59;102366.13;4935221;28;97329;-51
2023/04/17 06:30:48;;;;;;;12.23;7.03;;;;;;;11.91;60.45;102371.47;4939410;28;96827;-51
2023/04/17 06:33:13;;;;;;;10.10;7.10;;;;;;;12.03;60.34;102368.56;4934640;28;97162;-51
2023/04/17 06:35:39;;;;;;;7.50;6.37;;;;;;;12.14;60.23;102372.88;4936755;28;97064;-50
2023/04/17 06:38:05;;;;;;;9.20;6.60;;;;;;;12.24;60.26;102377.13;4933739;28;97182;-51
2023/04/17 06:40:31;;;;;;;11.30;7.17;;;;;;;12.30;59.61;102378.81;4934162;28;96788;-51
2023/04/17 06:42:56;;;;;;;11.90;8.03;;;;;;;12.22;59.54;102379.59;4934556;28;97267;-51
2023/04/17 06:45:22;;;;;;;8.53;7.67;;;;;;;12.17;59.80;102380.97;4935242;28;97044;-51
2023/04/17 06:47:47;;;;;;;9.40;7.60;;;;;;;12.22;59.83;102379.59;4938615;28;97136;-51
2023/04/17 06:50:13;;;;;;;15.13;10.07;;;;;;;12.20;59.55;102382.06;4934944;28;97466;-51
2023/04/17 06:52:38;;;;;;;10.60;7.63;;;;;;;12.20;59.66;102382.81;4939791;28;97089;-52
2023/04/17 06:55:04;;;;;;;7.80;6.87;;;;;;;12.31;59.79;102374.84;4939854;28;97349;-52
2023/04/17 06:57:30;;;;;;;10.90;7.03;;;;;;;12.51;59.86;102396.44;4937132;28;96928;-50
2023/04/17 06:59:55;;;;;;;9.77;7.47;;;;;;;12.67;59.60;102376.75;4938698;28;98039;-52
2023/04/17 07:02:20;;;;;;;11.20;7.40;;;;;;;12.85;59.44;102386.97;4938316;28;97107;-51
2023/04/17 07:04:46;;;;;;;10.73;7.50;;;;;;;12.83;58.56;102390.22;4936933;28;97225;-51
2023/04/17 07:07:11;;;;;;;7.60;6.80;;;;;;;12.88;59.00;102386.06;4937034;28;97260;-52
2023/04/17 07:09:36;;;;;;;11.07;6.63;;;;;;;13.01;59.14;102389.38;4937451;28;100241;-51
2023/04/17 07:12:02;;;;;;;8.63;6.80;;;;;;;13.07;58.68;102382.78;4937488;28;97126;-51
2023/04/17 07:14:28;;;;;;;11.10;7.70;;;;;;;13.05;58.50;102390.00;4935770;28;97226;-51
2023/04/17 07:16:53;;;;;;;7.93;6.53;;;;;;;13.11;58.63;102388.91;4936081;28;96938;-53
2023/04/17 07:19:19;;;;;;;10.20;6.33;;;;;;;13.27;58.49;102394.06;4937693;28;96925;-51
2023/04/17 07:21:44;;;;;;;7.03;5.73;;;;;;;13.38;58.55;102401.81;4938539;28;97086;-51
2023/04/17 07:24:10;;;;;;;9.20;6.80;;;;;;;13.47;58.41;102402.56;4937061;28;97264;-52
2023/04/17 07:26:36;;;;;;;9.67;7.47;;;;;;;13.47;57.86;102399.78;4936030;28;97149;-53
2023/04/17 07:29:01;;;;;;;8.27;7.33;;;;;;;13.50;57.51;102398.81;4936637;28;97156;-51
2023/04/17 07:31:27;;;;;;;9.53;6.60;;;;;;;13.58;57.34;102401.25;4939063;28;97272;-52
2023/04/17 07:33:52;;;;;;;7.17;6.37;;;;;;;13.65;57.11;102398.88;4936528;28;97223;-53
2023/04/17 07:36:18;;;;;;;7.43;6.10;;;;;;;13.73;57.32;102399.31;4937077;28;96747;-51
2023/04/17 07:38:43;;;;;;;5.33;4.80;;;;;;;13.84;57.26;102400.31;4935494;28;97484;-52
2023/04/17 07:41:11;;;;;;;7.57;5.60;;;;;;;13.94;56.86;102409.28;4936527;28;97564;-52
2023/04/17 07:43:36;;;;;;;6.73;5.80;;;;;;;13.96;56.75;102404.03;4936981;28;96907;-52
2023/04/17 07:46:01;;;;;;;8.00;6.70;;;;;;;14.02;56.28;102411.22;4936326;28;97123;-51
2023/04/17 07:48:27;;;;;;;8.57;5.90;;;;;;;14.06;56.45;102416.59;4933448;28;97545;-53
2023/04/17 07:50:52;;;;;;;8.00;6.67;;;;;;;14.17;56.22;102419.56;4938009;28;97551;-52
2023/04/17 07:53:17;;;;;;;9.70;7.30;;;;;;;14.22;55.93;102407.81;4932673;28;96963;-51
2023/04/17 07:55:43;;;;;;;6.60;5.93;;;;;;;14.26;56.06;102413.97;4936802;28;96844;-53
2023/04/17 07:58:10;;;;;;;6.93;6.03;;;;;;;14.38;55.94;102421.25;4936834;28;97350;-51
2023/04/17 08:00:40;;;;;;;6.23;5.53;;;;;;;14.58;55.71;102410.28;4934264;28;97319;-52
2023/04/17 08:03:06;;;;;;;7.13;6.10;;;;;;;14.67;55.24;102414.97;4939400;28;96791;-52
2023/04/17 08:05:31;;;;;;;6.73;5.90;;;;;;;14.67;54.52;102412.97;4936401;28;97494;-51
2023/04/17 08:07:59;;;;;;;6.53;5.63;;;;;;;14.76;55.18;102415.66;4937169;28;97989;-52
2023/04/17 08:10:24;;;;;;;7.80;6.00;;;;;;;14.96;55.02;102414.97;4933994;28;97190;-51
2023/04/17 08:12:50;;;;;;;6.70;5.90;;;;;;;15.12;54.63;102411.66;4938072;28;97282;-52
2023/04/17 08:15:16;;;;;;;6.23;5.27;;;;;;;15.29;54.68;102420.25;4935905;28;97201;-51
2023/04/17 08:17:42;;;;;;;5.60;5.10;;;;;;;15.40;53.94;102414.84;4934969;28;97721;-51
2023/04/17 08:20:09;;;;;;;11.23;5.50;;;;;;;15.54;53.57;102427.94;4937016;28;97853;-51
2023/04/17 08:22:39;;;;;;;8.77;5.60;;;;;;;15.52;52.67;102427.66;4936606;28;96872;-51
2023/04/17 08:25:08;;;;;;;7.83;5.10;;;;;;;15.58;53.08;102417.41;4935807;28;96637;-51
2023/04/17 08:27:34;;;;;;;7.33;5.20;;;;;;;15.56;52.64;102425.44;4937650;28;96844;-53
2023/04/17 08:30:00;;;;;;;7.93;5.40;;;;;;;15.55;52.89;102432.25;4934492;28;96843;-51
2023/04/17 08:32:26;;;;;;;7.37;5.13;;;;;;;15.57;52.47;102424.94;4934253;28;97081;-52
2023/04/17 08:34:51;;;;;;;5.50;4.90;;;;;;;15.65;52.40;102433.63;4935876;28;96803;-51
2023/04/17 08:37:16;;;;;;;5.53;4.20;;;;;;;15.69;52.12;102426.63;4932905;28;97350;-51
2023/04/17 08:39:42;;;;;;;5.23;4.20;;;;;;;15.76;51.75;102431.00;4935113;28;97822;-51
2023/04/17 08:42:09;;;;;;;5.07;4.67;;;;;;;15.85;51.69;102430.88;4933931;28;97090;-53
2023/04/17 08:44:35;;;;;;;7.43;5.27;;;;;;;15.92;51.00;102435.25;4935729;28;96907;-53
2023/04/17 08:47:03;;;;;;;6.40;4.17;;;;;;;15.94;51.07;102430.75;4934340;28;96941;-51
2023/04/17 08:49:28;;;;;;;6.20;5.00;;;;;;;16.14;51.17;102432.75;4936383;28;97208;-51
2023/04/17 08:51:54;;;;;;;6.00;5.40;;;;;;;16.31;49.62;102423.34;4935853;28;96835;-52
2023/04/17 08:54:20;;;;;;;11.80;5.10;;;;;;;16.48;50.03;102424.28;4936201;28;96957;-52
2023/04/17 08:56:47;;;;;;;6.33;5.50;;;;;;;16.61;49.50;102420.34;4934692;28;97089;-53
2023/04/17 08:59:12;;;;;;;5.60;4.63;;;;;;;16.64;49.98;102430.50;4933656;28;97114;-51
2023/04/17 09:01:38;;;;;;;5.57;4.77;;;;;;;16.69;49.32;102422.19;4936877;28;96965;-52
2023/04/17 09:04:03;;;;;;;8.03;5.60;;;;;;;16.82;49.00;102430.16;4940755;28;96856;-50
2023/04/17 09:06:47;;;;;;;4.90;4.40;;;;;;;16.97;46.62;102428.00;4938271;28;98210;-51
2023/04/17 09:09:13;;;;;;;5.93;5.30;;;;;;;17.06;48.93;102428.56;4933191;28;97195;-51
2023/04/17 09:11:38;;;;;;;5.87;5.03;;;;;;;17.11;48.55;102427.88;4934686;28;96973;-51
2023/04/17 09:14:03;;;;;;;6.70;5.13;;;;;;;17.17;47.67;102436.22;4940600;28;96966;-51
2023/04/17 09:16:29;;;;;;;8.30;5.27;;;;;;;17.17;47.51;102430.66;4934897;28;97310;-52
2023/04/17 09:19:05;;;;;;;5.37;4.70;;;;;;;17.20;45.10;102429.69;4936016;28;96945;-51
2023/04/17 09:21:31;;;;;;;9.40;4.63;;;;;;;17.25;47.77;102432.50;4935799;28;97101;-51
2023/04/17 09:23:58;;;;;;;5.03;4.40;;;;;;;17.29;47.69;102429.50;4935654;28;97025;-51
2023/04/17 09:26:25;;;;;;;6.33;4.60;;;;;;;17.32;46.67;102436.09;4938400;28;97554;-51
2023/04/17 09:29:10;;;;;;;8.20;4.87;;;;;;;17.30;45.86;102433.06;4935033;28;97118;-52
2023/04/17 09:31:37;;;;;;;5.30;4.63;;;;;;;17.35;47.68;102427.50;4936344;28;97026;-52
2023/04/17 09:34:12;;;;;;;7.20;4.90;;;;;;;17.39;41.77;102430.81;4940509;28;96817;-52
2023/04/17 09:36:40;;;;;;;6.77;6.07;;;;;;;17.32;47.33;102431.28;4934503;28;97467;-51
2023/04/17 09:39:17;;;;;;;6.93;5.50;;;;;;;17.44;45.14;102435.66;4934908;28;97179;-54
2023/04/17 09:41:43;;;;;;;4.30;3.97;;;;;;;17.56;47.57;102426.13;4935041;28;96754;-53
2023/04/17 09:44:10;;;;;;;5.57;3.93;;;;;;;17.79;47.29;102441.72;4940032;28;97103;-51
2023/04/17 09:46:44;;;;;;;8.10;4.20;;;;;;;17.93;46.94;102424.03;4933952;28;97471;-53
2023/04/17 09:49:17;;;;;;;4.40;4.00;;;;;;;18.03;45.75;102434.97;4935184;28;97266;-53
2023/04/17 09:51:44;;;;;;;6.03;4.43;;;;;;;18.08;46.94;102431.44;4937043;28;96860;-53
2023/04/17 09:54:10;;;;;;;3.97;3.57;;;;;;;18.06;46.80;102423.59;4933190;28;97314;-51
2023/04/17 09:56:36;;;;;;;6.37;4.60;;;;;;;18.05;46.26;102429.63;4937198;28;97384;-51
2023/04/17 09:59:04;;;;;;;7.70;4.00;;;;;;;17.93;46.06;102431.66;4936543;28;97638;-52
2023/04/17 10:01:34;;;;;;;6.77;5.00;;;;;;;17.81;44.49;102424.50;4934697;28;97081;-51
2023/04/17 10:04:02;;;;;;;6.10;4.60;;;;;;;17.85;45.68;102423.00;4936003;28;97464;-52
2023/04/17 10:06:29;;;;;;;4.03;3.73;;;;;;;18.03;46.40;102419.00;4934967;28;97101;-53
2023/04/17 10:08:55;;;;;;;7.07;4.60;;;;;;;18.19;45.80;102423.13;4938812;28;97156;-53
2023/04/17 10:11:23;;;;;;;8.80;5.07;;;;;;;18.29;45.50;102414.00;4938047;28;96998;-51
2023/04/17 10:14:03;;;;;;;5.10;4.33;;;;;;;18.41;45.46;102421.13;4936325;28;96938;-53
2023/04/17 10:16:41;;;;;;;5.50;3.87;;;;;;;18.56;41.06;102420.94;4937873;28;99933;-51
2023/04/17 10:19:30;;;;;;;5.63;5.00;;;;;;;18.54;42.03;102429.78;4935721;28;97687;-53
2023/04/17 10:22:14;;;;;;;5.67;4.60;;;;;;;18.32;42.91;102417.81;4936101;28;97101;-51
2023/04/17 10:24:43;;;;;;;5.97;4.50;;;;;;;18.20;45.08;102417.03;4939579;28;97569;-52
2023/04/17 10:27:23;;;;;;;3.43;3.13;;;;;;;18.19;39.61;102420.31;4940017;28;98399;-51
2023/04/17 10:30:06;;;;;;;4.20;3.87;;;;;;;18.22;44.53;102416.53;4940342;28;97200;-52
2023/04/17 10:32:32;;;;;;;10.77;4.60;;;;;;;18.31;45.24;102413.50;4937752;28;97197;-51
2023/04/17 10:35:19;;;;;;;4.40;4.00;;;;;;;18.33;45.08;102410.97;4941972;28;96801;-53
2023/04/17 10:37:48;;;;;;;4.07;3.70;;;;;;;18.50;45.01;102418.13;4938001;28;97545;-52
2023/04/17 10:40:21;;;;;;;5.73;4.60;;;;;;;18.55;44.52;102408.25;4939465;28;97187;-51
2023/04/17 10:43:03;;;;;;;6.20;4.10;;;;;;;18.47;43.60;102407.22;4937216;28;97196;-51
2023/04/17 10:45:50;;;;;;;4.20;3.73;;;;;;;18.39;43.44;102401.34;4937426;28;96763;-53
2023/04/17 10:48:21;;;;;;;4.27;3.87;;;;;;;18.38;44.10;102401.88;4933806;28;97188;-51
2023/04/17 10:50:46;;;;;;;3.90;3.50;;;;;;;18.44;44.46;102403.44;4936579;28;97055;-50
2023/04/17 10:53:36;;;;;;;4.60;4.10;;;;;;;18.42;42.35;102399.59;4943715;28;97127;-51
2023/04/17 10:56:02;;;;;;;5.87;3.90;;;;;;;18.55;44.77;102402.66;4938693;28;96831;-51
2023/04/17 10:58:28;;;;;;;4.37;3.60;;;;;;;18.63;44.16;102395.34;4936373;28;97552;-52
2023/04/17 11:00:53;;;;;;;3.90;3.17;;;;;;;18.69;43.88;102393.31;4938428;28;97526;-52
2023/04/17 11:03:21;;;;;;;3.60;3.30;;;;;;;18.73;40.82;102395.84;4932990;28;97113;-51
2023/04/17 11:05:47;;;;;;;4.80;3.53;;;;;;;18.80;43.59;102393.31;4937284;28;96662;-53
2023/04/17 11:08:13;;;;;;;4.13;3.73;;;;;;;18.75;43.03;102396.09;4937222;28;96884;-51
2023/04/17 11:10:39;;;;;;;4.17;3.77;;;;;;;18.87;43.63;102387.19;4935342;28;97427;-51
2023/04/17 11:13:05;;;;;;;3.40;3.10;;;;;;;19.22;43.86;102386.66;4937732;28;97083;-51
2023/04/17 11:15:33;;;;;;;4.40;3.77;;;;;;;19.53;43.21;102386.34;4937020;28;97159;-51
2023/04/17 11:17:59;;;;;;;3.13;2.93;;;;;;;19.75;43.03;102377.88;4935653;28;97005;-53
2023/04/17 11:20:29;;;;;;;3.50;3.20;;;;;;;20.01;42.21;102375.44;4934360;28;97043;-51
2023/04/17 11:22:59;;;;;;;3.90;3.50;;;;;;;20.13;41.92;102373.34;4936225;28;97158;-51